sensor_id;sensor_type;location;lat;lon;timestamp;P1;durP1;ratioP1;P2;durP2;ratioP2
43801;SDS011;29429;51.074;13.764;2024-02-21T00:01:32;15.43;;;4.03;;
43801;SDS011;29429;51.074;13.764;2024-02-21T00:03:59;14.15;;;4.18;;
43801;SDS011;29429;51.074;13.764;2024-02-21T00:06:26;17.40;;;4.38;;
43801;SDS011;29429;51.074;13.764;2024-02-21T00:08:53;14.60;;;4.03;;
43801;SDS011;29429;51.074;13.764;2024-02-21T00:11:20;13.77;;;4.80;;
43801;SDS011;29429;51.074;13.764;2024-02-21T00:13:48;16.85;;;4.25;;
43801;SDS011;29429;51.074;13.764;2024-02-21T00:16:14;13.43;;;3.65;;
43801;SDS011;29429;51.074;13.764;2024-02-21T00:18:43;15.27;;;4.53;;
43801;SDS011;29429;51.074;13.764;2024-02-21T00:21:11;18.08;;;4.72;;
43801;SDS011;29429;51.074;13.764;2024-02-21T00:23:44;20.42;;;3.92;;
43801;SDS011;29429;51.074;13.764;2024-02-21T00:26:12;13.32;;;3.92;;
43801;SDS011;29429;51.074;13.764;2024-02-21T00:28:40;18.73;;;4.05;;
43801;SDS011;29429;51.074;13.764;2024-02-21T00:31:07;10.40;;;2.83;;
43801;SDS011;29429;51.074;13.764;2024-02-21T00:33:34;12.30;;;3.20;;
43801;SDS011;29429;51.074;13.764;2024-02-21T00:36:01;12.60;;;3.42;;
43801;SDS011;29429;51.074;13.764;2024-02-21T00:38:28;12.32;;;4.30;;
43801;SDS011;29429;51.074;13.764;2024-02-21T00:40:55;8.13;;;2.88;;
43801;SDS011;29429;51.074;13.764;2024-02-21T00:43:22;17.38;;;3.92;;
43801;SDS011;29429;51.074;13.764;2024-02-21T00:45:50;11.57;;;2.78;;
43801;SDS011;29429;51.074;13.764;2024-02-21T00:48:18;11.07;;;2.80;;
43801;SDS011;29429;51.074;13.764;2024-02-21T00:50:45;11.63;;;3.15;;
43801;SDS011;29429;51.074;13.764;2024-02-21T00:53:12;14.07;;;3.35;;
43801;SDS011;29429;51.074;13.764;2024-02-21T00:55:39;10.27;;;3.50;;
43801;SDS011;29429;51.074;13.764;2024-02-21T00:58:06;14.18;;;4.07;;
43801;SDS011;29429;51.074;13.764;2024-02-21T01:00:33;9.60;;;2.95;;
43801;SDS011;29429;51.074;13.764;2024-02-21T01:03:00;17.23;;;5.13;;
43801;SDS011;29429;51.074;13.764;2024-02-21T01:05:28;14.63;;;3.78;;
43801;SDS011;29429;51.074;13.764;2024-02-21T01:07:55;12.50;;;3.97;;
43801;SDS011;29429;51.074;13.764;2024-02-21T01:10:22;13.95;;;4.35;;
43801;SDS011;29429;51.074;13.764;2024-02-21T01:12:49;10.55;;;3.30;;
43801;SDS011;29429;51.074;13.764;2024-02-21T01:15:16;14.65;;;3.97;;
43801;SDS011;29429;51.074;13.764;2024-02-21T01:17:43;16.33;;;4.05;;
43801;SDS011;29429;51.074;13.764;2024-02-21T01:20:10;14.38;;;3.45;;
43801;SDS011;29429;51.074;13.764;2024-02-21T01:22:38;12.95;;;3.83;;
43801;SDS011;29429;51.074;13.764;2024-02-21T01:25:05;12.63;;;3.38;;
43801;SDS011;29429;51.074;13.764;2024-02-21T01:27:32;16.88;;;4.53;;
43801;SDS011;29429;51.074;13.764;2024-02-21T01:29:59;14.80;;;3.55;;
43801;SDS011;29429;51.074;13.764;2024-02-21T01:32:26;13.13;;;3.38;;
43801;SDS011;29429;51.074;13.764;2024-02-21T01:34:53;12.15;;;3.30;;
43801;SDS011;29429;51.074;13.764;2024-02-21T01:37:20;16.45;;;3.63;;
43801;SDS011;29429;51.074;13.764;2024-02-21T01:39:47;18.45;;;4.75;;
43801;SDS011;29429;51.074;13.764;2024-02-21T01:42:15;9.88;;;3.45;;
43801;SDS011;29429;51.074;13.764;2024-02-21T01:44:42;13.27;;;3.97;;
43801;SDS011;29429;51.074;13.764;2024-02-21T01:47:10;10.07;;;3.92;;
43801;SDS011;29429;51.074;13.764;2024-02-21T01:49:42;15.68;;;3.22;;
43801;SDS011;29429;51.074;13.764;2024-02-21T01:52:10;9.48;;;2.60;;
43801;SDS011;29429;51.074;13.764;2024-02-21T01:54:43;12.48;;;3.42;;
43801;SDS011;29429;51.074;13.764;2024-02-21T01:57:12;15.15;;;3.92;;
43801;SDS011;29429;51.074;13.764;2024-02-21T01:59:41;9.63;;;3.33;;
43801;SDS011;29429;51.074;13.764;2024-02-21T02:02:08;14.00;;;3.42;;
43801;SDS011;29429;51.074;13.764;2024-02-21T02:04:37;9.80;;;3.20;;
43801;SDS011;29429;51.074;13.764;2024-02-21T02:07:06;13.52;;;3.40;;
43801;SDS011;29429;51.074;13.764;2024-02-21T02:09:34;12.45;;;3.30;;
43801;SDS011;29429;51.074;13.764;2024-02-21T02:12:01;10.15;;;3.28;;
43801;SDS011;29429;51.074;13.764;2024-02-21T02:14:28;9.65;;;3.22;;
43801;SDS011;29429;51.074;13.764;2024-02-21T02:16:55;9.55;;;3.40;;
43801;SDS011;29429;51.074;13.764;2024-02-21T02:19:22;13.63;;;3.42;;
43801;SDS011;29429;51.074;13.764;2024-02-21T02:21:51;17.83;;;4.93;;
43801;SDS011;29429;51.074;13.764;2024-02-21T02:24:26;10.95;;;4.10;;
43801;SDS011;29429;51.074;13.764;2024-02-21T02:26:53;11.32;;;3.92;;
43801;SDS011;29429;51.074;13.764;2024-02-21T02:29:20;8.25;;;3.50;;
43801;SDS011;29429;51.074;13.764;2024-02-21T02:31:47;9.82;;;3.08;;
43801;SDS011;29429;51.074;13.764;2024-02-21T02:34:15;16.80;;;4.05;;
43801;SDS011;29429;51.074;13.764;2024-02-21T02:36:42;11.13;;;3.60;;
43801;SDS011;29429;51.074;13.764;2024-02-21T02:39:09;14.73;;;4.18;;
43801;SDS011;29429;51.074;13.764;2024-02-21T02:41:36;11.63;;;3.20;;
43801;SDS011;29429;51.074;13.764;2024-02-21T02:44:03;11.65;;;3.63;;
43801;SDS011;29429;51.074;13.764;2024-02-21T02:46:30;8.88;;;3.80;;
43801;SDS011;29429;51.074;13.764;2024-02-21T02:48:57;13.75;;;3.75;;
43801;SDS011;29429;51.074;13.764;2024-02-21T02:51:24;12.75;;;3.67;;
43801;SDS011;29429;51.074;13.764;2024-02-21T02:53:51;7.97;;;2.88;;
43801;SDS011;29429;51.074;13.764;2024-02-21T02:56:18;7.93;;;3.00;;
43801;SDS011;29429;51.074;13.764;2024-02-21T02:58:45;11.60;;;3.42;;
43801;SDS011;29429;51.074;13.764;2024-02-21T03:01:12;14.10;;;4.13;;
43801;SDS011;29429;51.074;13.764;2024-02-21T03:03:40;18.42;;;3.88;;
43801;SDS011;29429;51.074;13.764;2024-02-21T03:06:07;10.32;;;3.03;;
43801;SDS011;29429;51.074;13.764;2024-02-21T03:08:34;13.80;;;3.80;;
43801;SDS011;29429;51.074;13.764;2024-02-21T03:11:01;13.77;;;3.60;;
43801;SDS011;29429;51.074;13.764;2024-02-21T03:13:28;16.17;;;3.55;;
43801;SDS011;29429;51.074;13.764;2024-02-21T03:15:55;14.07;;;3.38;;
43801;SDS011;29429;51.074;13.764;2024-02-21T03:18:22;13.45;;;3.72;;
43801;SDS011;29429;51.074;13.764;2024-02-21T03:20:49;7.65;;;2.80;;
43801;SDS011;29429;51.074;13.764;2024-02-21T03:23:16;15.15;;;3.60;;
43801;SDS011;29429;51.074;13.764;2024-02-21T03:25:43;9.90;;;3.50;;
43801;SDS011;29429;51.074;13.764;2024-02-21T03:28:10;14.63;;;3.47;;
43801;SDS011;29429;51.074;13.764;2024-02-21T03:30:37;12.98;;;2.95;;
43801;SDS011;29429;51.074;13.764;2024-02-21T03:33:04;9.73;;;2.83;;
43801;SDS011;29429;51.074;13.764;2024-02-21T03:35:31;14.00;;;3.53;;
43801;SDS011;29429;51.074;13.764;2024-02-21T03:37:58;12.25;;;3.78;;
43801;SDS011;29429;51.074;13.764;2024-02-21T03:40:25;10.63;;;3.08;;
43801;SDS011;29429;51.074;13.764;2024-02-21T03:42:53;9.82;;;3.65;;
43801;SDS011;29429;51.074;13.764;2024-02-21T03:45:20;7.90;;;2.67;;
43801;SDS011;29429;51.074;13.764;2024-02-21T03:47:46;9.07;;;3.15;;
43801;SDS011;29429;51.074;13.764;2024-02-21T03:50:13;9.90;;;3.35;;
43801;SDS011;29429;51.074;13.764;2024-02-21T03:52:40;9.38;;;3.03;;
43801;SDS011;29429;51.074;13.764;2024-02-21T03:55:07;8.50;;;3.08;;
43801;SDS011;29429;51.074;13.764;2024-02-21T03:57:35;8.35;;;2.85;;
43801;SDS011;29429;51.074;13.764;2024-02-21T04:00:02;8.15;;;2.63;;
43801;SDS011;29429;51.074;13.764;2024-02-21T04:02:32;8.30;;;2.70;;
43801;SDS011;29429;51.074;13.764;2024-02-21T04:04:59;13.88;;;3.10;;
43801;SDS011;29429;51.074;13.764;2024-02-21T04:07:26;15.43;;;3.80;;
43801;SDS011;29429;51.074;13.764;2024-02-21T04:09:53;11.20;;;3.75;;
43801;SDS011;29429;51.074;13.764;2024-02-21T04:12:20;11.23;;;3.20;;
43801;SDS011;29429;51.074;13.764;2024-02-21T04:14:47;10.20;;;2.97;;
43801;SDS011;29429;51.074;13.764;2024-02-21T04:17:14;10.15;;;3.22;;
43801;SDS011;29429;51.074;13.764;2024-02-21T04:19:41;14.63;;;3.40;;
43801;SDS011;29429;51.074;13.764;2024-02-21T04:22:08;13.00;;;3.22;;
43801;SDS011;29429;51.074;13.764;2024-02-21T04:24:35;7.03;;;2.63;;
43801;SDS011;29429;51.074;13.764;2024-02-21T04:27:02;10.60;;;3.65;;
43801;SDS011;29429;51.074;13.764;2024-02-21T04:29:29;6.28;;;3.13;;
43801;SDS011;29429;51.074;13.764;2024-02-21T04:31:57;10.15;;;2.88;;
43801;SDS011;29429;51.074;13.764;2024-02-21T04:34:24;14.63;;;4.88;;
43801;SDS011;29429;51.074;13.764;2024-02-21T04:36:51;10.65;;;3.63;;
43801;SDS011;29429;51.074;13.764;2024-02-21T04:39:18;15.73;;;3.65;;
43801;SDS011;29429;51.074;13.764;2024-02-21T04:41:45;11.30;;;3.60;;
43801;SDS011;29429;51.074;13.764;2024-02-21T04:44:12;9.93;;;3.20;;
43801;SDS011;29429;51.074;13.764;2024-02-21T04:46:41;11.90;;;3.63;;
43801;SDS011;29429;51.074;13.764;2024-02-21T04:49:09;9.38;;;3.03;;
43801;SDS011;29429;51.074;13.764;2024-02-21T04:51:36;9.48;;;3.20;;
43801;SDS011;29429;51.074;13.764;2024-02-21T04:54:03;9.25;;;2.92;;
43801;SDS011;29429;51.074;13.764;2024-02-21T04:56:30;12.30;;;3.28;;
43801;SDS011;29429;51.074;13.764;2024-02-21T04:58:57;10.15;;;3.45;;
43801;SDS011;29429;51.074;13.764;2024-02-21T05:01:25;11.95;;;3.28;;
43801;SDS011;29429;51.074;13.764;2024-02-21T05:03:52;12.02;;;3.25;;
43801;SDS011;29429;51.074;13.764;2024-02-21T05:06:19;14.48;;;3.47;;
43801;SDS011;29429;51.074;13.764;2024-02-21T05:08:46;8.40;;;2.88;;
43801;SDS011;29429;51.074;13.764;2024-02-21T05:11:14;11.60;;;3.20;;
43801;SDS011;29429;51.074;13.764;2024-02-21T05:13:41;11.30;;;3.28;;
43801;SDS011;29429;51.074;13.764;2024-02-21T05:16:08;6.57;;;2.60;;
43801;SDS011;29429;51.074;13.764;2024-02-21T05:18:35;12.00;;;3.20;;
43801;SDS011;29429;51.074;13.764;2024-02-21T05:21:02;8.52;;;3.17;;
43801;SDS011;29429;51.074;13.764;2024-02-21T05:23:29;10.90;;;3.75;;
43801;SDS011;29429;51.074;13.764;2024-02-21T05:25:56;17.27;;;4.78;;
43801;SDS011;29429;51.074;13.764;2024-02-21T05:28:23;14.80;;;4.00;;
43801;SDS011;29429;51.074;13.764;2024-02-21T05:30:50;10.40;;;4.45;;
43801;SDS011;29429;51.074;13.764;2024-02-21T05:33:17;13.88;;;4.07;;
43801;SDS011;29429;51.074;13.764;2024-02-21T05:35:48;9.27;;;3.70;;
43801;SDS011;29429;51.074;13.764;2024-02-21T05:38:15;12.18;;;3.80;;
43801;SDS011;29429;51.074;13.764;2024-02-21T05:40:46;10.48;;;3.30;;
43801;SDS011;29429;51.074;13.764;2024-02-21T05:43:13;10.18;;;3.83;;
43801;SDS011;29429;51.074;13.764;2024-02-21T05:45:40;15.32;;;4.20;;
43801;SDS011;29429;51.074;13.764;2024-02-21T05:48:07;8.95;;;3.83;;
43801;SDS011;29429;51.074;13.764;2024-02-21T05:50:34;11.65;;;4.43;;
43801;SDS011;29429;51.074;13.764;2024-02-21T05:53:01;13.30;;;3.40;;
43801;SDS011;29429;51.074;13.764;2024-02-21T05:55:29;10.95;;;3.70;;
43801;SDS011;29429;51.074;13.764;2024-02-21T05:57:56;10.68;;;3.92;;
43801;SDS011;29429;51.074;13.764;2024-02-21T06:00:23;14.27;;;3.28;;
43801;SDS011;29429;51.074;13.764;2024-02-21T06:02:50;11.98;;;3.85;;
43801;SDS011;29429;51.074;13.764;2024-02-21T06:05:17;11.55;;;3.85;;
43801;SDS011;29429;51.074;13.764;2024-02-21T06:07:44;11.80;;;3.78;;
43801;SDS011;29429;51.074;13.764;2024-02-21T06:10:11;11.13;;;3.67;;
43801;SDS011;29429;51.074;13.764;2024-02-21T06:12:38;15.02;;;4.75;;
43801;SDS011;29429;51.074;13.764;2024-02-21T06:15:05;6.95;;;3.05;;
43801;SDS011;29429;51.074;13.764;2024-02-21T06:17:33;12.73;;;4.75;;
43801;SDS011;29429;51.074;13.764;2024-02-21T06:20:00;12.25;;;3.85;;
43801;SDS011;29429;51.074;13.764;2024-02-21T06:22:28;9.98;;;3.33;;
43801;SDS011;29429;51.074;13.764;2024-02-21T06:24:57;10.80;;;3.67;;
43801;SDS011;29429;51.074;13.764;2024-02-21T06:27:24;14.63;;;3.78;;
43801;SDS011;29429;51.074;13.764;2024-02-21T06:29:51;12.10;;;3.92;;
43801;SDS011;29429;51.074;13.764;2024-02-21T06:32:18;12.07;;;3.85;;
43801;SDS011;29429;51.074;13.764;2024-02-21T06:34:44;12.75;;;4.43;;
43801;SDS011;29429;51.074;13.764;2024-02-21T06:37:11;10.50;;;3.72;;
43801;SDS011;29429;51.074;13.764;2024-02-21T06:39:38;15.48;;;4.95;;
43801;SDS011;29429;51.074;13.764;2024-02-21T06:42:07;11.57;;;4.13;;
43801;SDS011;29429;51.074;13.764;2024-02-21T06:44:34;8.15;;;3.97;;
43801;SDS011;29429;51.074;13.764;2024-02-21T06:47:06;11.35;;;4.00;;
43801;SDS011;29429;51.074;13.764;2024-02-21T06:49:36;10.00;;;3.80;;
43801;SDS011;29429;51.074;13.764;2024-02-21T06:52:04;13.45;;;3.28;;
43801;SDS011;29429;51.074;13.764;2024-02-21T06:54:31;8.18;;;3.10;;
43801;SDS011;29429;51.074;13.764;2024-02-21T06:56:59;12.20;;;3.63;;
43801;SDS011;29429;51.074;13.764;2024-02-21T06:59:26;14.98;;;4.55;;
43801;SDS011;29429;51.074;13.764;2024-02-21T07:01:53;11.65;;;3.78;;
43801;SDS011;29429;51.074;13.764;2024-02-21T07:04:24;8.10;;;3.20;;
43801;SDS011;29429;51.074;13.764;2024-02-21T07:06:51;7.18;;;3.20;;
43801;SDS011;29429;51.074;13.764;2024-02-21T07:09:18;12.02;;;3.90;;
43801;SDS011;29429;51.074;13.764;2024-02-21T07:11:45;8.65;;;3.30;;
43801;SDS011;29429;51.074;13.764;2024-02-21T07:14:14;11.50;;;3.85;;
43801;SDS011;29429;51.074;13.764;2024-02-21T07:16:41;12.40;;;4.57;;
43801;SDS011;29429;51.074;13.764;2024-02-21T07:19:08;10.35;;;3.60;;
43801;SDS011;29429;51.074;13.764;2024-02-21T07:21:36;14.52;;;4.07;;
43801;SDS011;29429;51.074;13.764;2024-02-21T07:24:07;8.25;;;3.67;;
43801;SDS011;29429;51.074;13.764;2024-02-21T07:26:35;9.65;;;3.67;;
43801;SDS011;29429;51.074;13.764;2024-02-21T07:29:01;13.00;;;3.90;;
43801;SDS011;29429;51.074;13.764;2024-02-21T07:31:29;14.60;;;5.40;;
43801;SDS011;29429;51.074;13.764;2024-02-21T07:33:56;9.85;;;3.95;;
43801;SDS011;29429;51.074;13.764;2024-02-21T07:36:29;11.57;;;4.18;;
43801;SDS011;29429;51.074;13.764;2024-02-21T07:38:59;10.50;;;3.88;;
43801;SDS011;29429;51.074;13.764;2024-02-21T07:41:26;9.27;;;4.00;;
43801;SDS011;29429;51.074;13.764;2024-02-21T07:43:56;11.32;;;5.18;;
43801;SDS011;29429;51.074;13.764;2024-02-21T07:46:23;13.40;;;5.95;;
43801;SDS011;29429;51.074;13.764;2024-02-21T07:48:50;15.85;;;5.50;;
43801;SDS011;29429;51.074;13.764;2024-02-21T07:51:17;12.02;;;4.25;;
43801;SDS011;29429;51.074;13.764;2024-02-21T07:53:45;11.02;;;3.60;;
43801;SDS011;29429;51.074;13.764;2024-02-21T07:56:14;13.05;;;3.60;;
43801;SDS011;29429;51.074;13.764;2024-02-21T07:58:41;13.63;;;3.83;;
43801;SDS011;29429;51.074;13.764;2024-02-21T08:01:08;7.00;;;2.85;;
43801;SDS011;29429;51.074;13.764;2024-02-21T08:03:36;9.05;;;3.28;;
43801;SDS011;29429;51.074;13.764;2024-02-21T08:06:03;7.97;;;3.25;;
43801;SDS011;29429;51.074;13.764;2024-02-21T08:08:30;10.88;;;3.10;;
43801;SDS011;29429;51.074;13.764;2024-02-21T08:10:57;10.07;;;3.95;;
43801;SDS011;29429;51.074;13.764;2024-02-21T08:13:24;11.45;;;3.60;;
43801;SDS011;29429;51.074;13.764;2024-02-21T08:15:52;9.80;;;3.45;;
43801;SDS011;29429;51.074;13.764;2024-02-21T08:18:18;9.98;;;3.42;;
43801;SDS011;29429;51.074;13.764;2024-02-21T08:20:46;11.80;;;3.80;;
43801;SDS011;29429;51.074;13.764;2024-02-21T08:23:15;14.93;;;3.78;;
43801;SDS011;29429;51.074;13.764;2024-02-21T08:25:43;6.45;;;3.20;;
43801;SDS011;29429;51.074;13.764;2024-02-21T08:28:10;16.02;;;4.78;;
43801;SDS011;29429;51.074;13.764;2024-02-21T08:30:39;12.88;;;4.15;;
43801;SDS011;29429;51.074;13.764;2024-02-21T08:33:06;7.60;;;3.45;;
43801;SDS011;29429;51.074;13.764;2024-02-21T08:35:33;12.68;;;4.07;;
43801;SDS011;29429;51.074;13.764;2024-02-21T08:38:00;15.13;;;3.72;;
43801;SDS011;29429;51.074;13.764;2024-02-21T08:40:27;10.80;;;3.83;;
43801;SDS011;29429;51.074;13.764;2024-02-21T08:42:54;12.20;;;3.80;;
43801;SDS011;29429;51.074;13.764;2024-02-21T08:45:21;9.88;;;4.05;;
43801;SDS011;29429;51.074;13.764;2024-02-21T08:47:48;11.02;;;3.90;;
43801;SDS011;29429;51.074;13.764;2024-02-21T08:50:15;10.30;;;3.70;;
43801;SDS011;29429;51.074;13.764;2024-02-21T08:52:53;10.07;;;3.65;;
43801;SDS011;29429;51.074;13.764;2024-02-21T08:55:21;16.08;;;4.47;;
43801;SDS011;29429;51.074;13.764;2024-02-21T08:57:48;10.43;;;4.30;;
43801;SDS011;29429;51.074;13.764;2024-02-21T09:00:16;8.45;;;3.10;;
43801;SDS011;29429;51.074;13.764;2024-02-21T09:02:43;10.85;;;3.92;;
43801;SDS011;29429;51.074;13.764;2024-02-21T09:05:10;9.80;;;3.88;;
43801;SDS011;29429;51.074;13.764;2024-02-21T09:07:38;8.77;;;3.97;;
43801;SDS011;29429;51.074;13.764;2024-02-21T09:10:05;11.10;;;3.45;;
43801;SDS011;29429;51.074;13.764;2024-02-21T09:12:33;11.85;;;4.50;;
43801;SDS011;29429;51.074;13.764;2024-02-21T09:15:00;13.55;;;3.97;;
43801;SDS011;29429;51.074;13.764;2024-02-21T09:17:27;12.02;;;3.90;;
43801;SDS011;29429;51.074;13.764;2024-02-21T09:19:56;11.55;;;3.83;;
43801;SDS011;29429;51.074;13.764;2024-02-21T09:22:25;12.73;;;4.40;;
43801;SDS011;29429;51.074;13.764;2024-02-21T09:24:52;12.27;;;4.72;;
43801;SDS011;29429;51.074;13.764;2024-02-21T09:27:19;11.95;;;4.00;;
43801;SDS011;29429;51.074;13.764;2024-02-21T09:29:46;10.00;;;3.72;;
43801;SDS011;29429;51.074;13.764;2024-02-21T09:32:13;11.98;;;3.92;;
43801;SDS011;29429;51.074;13.764;2024-02-21T09:34:41;11.90;;;4.32;;
43801;SDS011;29429;51.074;13.764;2024-02-21T09:37:08;9.80;;;3.92;;
43801;SDS011;29429;51.074;13.764;2024-02-21T09:39:35;10.48;;;4.10;;
43801;SDS011;29429;51.074;13.764;2024-02-21T09:42:05;10.32;;;3.85;;
43801;SDS011;29429;51.074;13.764;2024-02-21T09:44:38;11.50;;;3.90;;
43801;SDS011;29429;51.074;13.764;2024-02-21T09:47:10;10.65;;;4.13;;
43801;SDS011;29429;51.074;13.764;2024-02-21T09:49:44;9.80;;;3.67;;
43801;SDS011;29429;51.074;13.764;2024-02-21T09:52:12;11.07;;;4.82;;
43801;SDS011;29429;51.074;13.764;2024-02-21T09:54:42;12.20;;;4.82;;
43801;SDS011;29429;51.074;13.764;2024-02-21T09:57:11;10.02;;;3.60;;
43801;SDS011;29429;51.074;13.764;2024-02-21T09:59:39;8.90;;;3.70;;
43801;SDS011;29429;51.074;13.764;2024-02-21T10:02:08;10.30;;;3.83;;
43801;SDS011;29429;51.074;13.764;2024-02-21T10:04:35;6.50;;;3.03;;
43801;SDS011;29429;51.074;13.764;2024-02-21T10:07:02;9.70;;;3.30;;
43801;SDS011;29429;51.074;13.764;2024-02-21T10:09:30;9.13;;;3.90;;
43801;SDS011;29429;51.074;13.764;2024-02-21T10:12:09;9.25;;;3.90;;
43801;SDS011;29429;51.074;13.764;2024-02-21T10:14:39;8.25;;;3.42;;
43801;SDS011;29429;51.074;13.764;2024-02-21T10:17:06;10.02;;;3.17;;
43801;SDS011;29429;51.074;13.764;2024-02-21T10:19:37;8.07;;;3.22;;
43801;SDS011;29429;51.074;13.764;2024-02-21T10:22:07;9.25;;;3.53;;
43801;SDS011;29429;51.074;13.764;2024-02-21T10:24:35;11.07;;;3.55;;
43801;SDS011;29429;51.074;13.764;2024-02-21T10:27:09;7.38;;;3.20;;
43801;SDS011;29429;51.074;13.764;2024-02-21T10:29:38;9.27;;;3.55;;
43801;SDS011;29429;51.074;13.764;2024-02-21T10:32:13;10.65;;;3.58;;
43801;SDS011;29429;51.074;13.764;2024-02-21T10:34:41;9.45;;;3.67;;
43801;SDS011;29429;51.074;13.764;2024-02-21T10:37:10;8.45;;;3.30;;
43801;SDS011;29429;51.074;13.764;2024-02-21T10:39:41;9.57;;;2.95;;
43801;SDS011;29429;51.074;13.764;2024-02-21T10:42:10;7.38;;;3.03;;
43801;SDS011;29429;51.074;13.764;2024-02-21T10:44:40;8.55;;;2.78;;
43801;SDS011;29429;51.074;13.764;2024-02-21T10:47:09;8.23;;;3.40;;
43801;SDS011;29429;51.074;13.764;2024-02-21T10:49:39;6.72;;;3.00;;
43801;SDS011;29429;51.074;13.764;2024-02-21T10:52:17;7.10;;;3.13;;
43801;SDS011;29429;51.074;13.764;2024-02-21T10:55:16;9.80;;;3.17;;
43801;SDS011;29429;51.074;13.764;2024-02-21T10:57:53;9.55;;;3.08;;
43801;SDS011;29429;51.074;13.764;2024-02-21T11:00:22;10.70;;;3.40;;
43801;SDS011;29429;51.074;13.764;2024-02-21T11:02:59;8.03;;;3.20;;
43801;SDS011;29429;51.074;13.764;2024-02-21T11:05:28;6.80;;;2.80;;
43801;SDS011;29429;51.074;13.764;2024-02-21T11:07:56;8.73;;;3.38;;
43801;SDS011;29429;51.074;13.764;2024-02-21T11:10:25;9.18;;;3.28;;
43801;SDS011;29429;51.074;13.764;2024-02-21T11:13:14;8.32;;;2.72;;
43801;SDS011;29429;51.074;13.764;2024-02-21T11:15:41;6.82;;;2.67;;
43801;SDS011;29429;51.074;13.764;2024-02-21T11:18:08;5.88;;;2.45;;
43801;SDS011;29429;51.074;13.764;2024-02-21T11:20:35;10.50;;;3.05;;
43801;SDS011;29429;51.074;13.764;2024-02-21T11:23:04;8.75;;;2.38;;
43801;SDS011;29429;51.074;13.764;2024-02-21T11:25:31;8.50;;;2.50;;
43801;SDS011;29429;51.074;13.764;2024-02-21T11:28:01;12.70;;;3.45;;
43801;SDS011;29429;51.074;13.764;2024-02-21T11:30:30;8.60;;;3.15;;
43801;SDS011;29429;51.074;13.764;2024-02-21T11:32:59;10.70;;;2.95;;
43801;SDS011;29429;51.074;13.764;2024-02-21T11:35:36;10.57;;;3.35;;
43801;SDS011;29429;51.074;13.764;2024-02-21T11:40:46;7.40;;;3.08;;
43801;SDS011;29429;51.074;13.764;2024-02-21T11:43:14;6.90;;;2.97;;
43801;SDS011;29429;51.074;13.764;2024-02-21T11:45:43;6.38;;;2.40;;
43801;SDS011;29429;51.074;13.764;2024-02-21T11:48:10;7.97;;;3.17;;
43801;SDS011;29429;51.074;13.764;2024-02-21T11:50:37;7.90;;;2.90;;
43801;SDS011;29429;51.074;13.764;2024-02-21T11:53:05;5.60;;;2.60;;
43801;SDS011;29429;51.074;13.764;2024-02-21T11:55:33;7.15;;;2.30;;
43801;SDS011;29429;51.074;13.764;2024-02-21T11:58:00;6.22;;;2.50;;
43801;SDS011;29429;51.074;13.764;2024-02-21T12:00:27;6.40;;;2.80;;
43801;SDS011;29429;51.074;13.764;2024-02-21T12:02:55;8.48;;;3.15;;
43801;SDS011;29429;51.074;13.764;2024-02-21T12:05:28;6.03;;;2.45;;
43801;SDS011;29429;51.074;13.764;2024-02-21T12:07:55;7.45;;;2.60;;
43801;SDS011;29429;51.074;13.764;2024-02-21T12:10:25;6.28;;;2.67;;
43801;SDS011;29429;51.074;13.764;2024-02-21T12:13:06;9.68;;;2.85;;
43801;SDS011;29429;51.074;13.764;2024-02-21T12:15:35;8.35;;;2.95;;
43801;SDS011;29429;51.074;13.764;2024-02-21T12:18:02;7.43;;;2.28;;
43801;SDS011;29429;51.074;13.764;2024-02-21T12:20:30;7.55;;;2.28;;
43801;SDS011;29429;51.074;13.764;2024-02-21T12:23:01;7.32;;;2.65;;
43801;SDS011;29429;51.074;13.764;2024-02-21T12:25:29;6.30;;;2.55;;
43801;SDS011;29429;51.074;13.764;2024-02-21T12:27:56;5.00;;;2.60;;
43801;SDS011;29429;51.074;13.764;2024-02-21T12:30:24;6.85;;;2.47;;
43801;SDS011;29429;51.074;13.764;2024-02-21T12:32:52;7.65;;;2.78;;
43801;SDS011;29429;51.074;13.764;2024-02-21T12:35:19;7.80;;;2.72;;
43801;SDS011;29429;51.074;13.764;2024-02-21T12:37:46;5.88;;;2.75;;
43801;SDS011;29429;51.074;13.764;2024-02-21T12:40:14;5.22;;;2.58;;
43801;SDS011;29429;51.074;13.764;2024-02-21T12:42:42;7.80;;;3.00;;
43801;SDS011;29429;51.074;13.764;2024-02-21T12:45:09;7.35;;;3.13;;
43801;SDS011;29429;51.074;13.764;2024-02-21T12:47:36;8.30;;;2.42;;
43801;SDS011;29429;51.074;13.764;2024-02-21T12:50:03;5.13;;;2.50;;
43801;SDS011;29429;51.074;13.764;2024-02-21T12:52:34;7.45;;;2.40;;
43801;SDS011;29429;51.074;13.764;2024-02-21T12:55:01;6.88;;;2.50;;
43801;SDS011;29429;51.074;13.764;2024-02-21T12:57:28;5.22;;;2.17;;
43801;SDS011;29429;51.074;13.764;2024-02-21T12:59:54;5.70;;;2.33;;
43801;SDS011;29429;51.074;13.764;2024-02-21T13:02:21;8.65;;;2.72;;
43801;SDS011;29429;51.074;13.764;2024-02-21T13:04:49;5.85;;;2.30;;
43801;SDS011;29429;51.074;13.764;2024-02-21T13:07:16;5.47;;;2.13;;
43801;SDS011;29429;51.074;13.764;2024-02-21T13:09:43;4.68;;;2.30;;
43801;SDS011;29429;51.074;13.764;2024-02-21T13:12:10;5.00;;;2.25;;
43801;SDS011;29429;51.074;13.764;2024-02-21T13:14:37;6.72;;;2.30;;
43801;SDS011;29429;51.074;13.764;2024-02-21T13:17:05;7.38;;;2.42;;
43801;SDS011;29429;51.074;13.764;2024-02-21T13:19:33;5.80;;;2.20;;
43801;SDS011;29429;51.074;13.764;2024-02-21T13:22:00;8.68;;;2.13;;
43801;SDS011;29429;51.074;13.764;2024-02-21T13:24:29;7.05;;;2.80;;
43801;SDS011;29429;51.074;13.764;2024-02-21T13:26:57;8.50;;;2.60;;
43801;SDS011;29429;51.074;13.764;2024-02-21T13:29:24;4.40;;;2.13;;
43801;SDS011;29429;51.074;13.764;2024-02-21T13:31:51;6.88;;;2.30;;
43801;SDS011;29429;51.074;13.764;2024-02-21T13:34:18;5.03;;;2.40;;
43801;SDS011;29429;51.074;13.764;2024-02-21T13:36:46;7.82;;;2.63;;
43801;SDS011;29429;51.074;13.764;2024-02-21T13:39:13;6.90;;;2.30;;
43801;SDS011;29429;51.074;13.764;2024-02-21T13:41:42;6.28;;;2.65;;
43801;SDS011;29429;51.074;13.764;2024-02-21T13:44:12;6.57;;;2.45;;
43801;SDS011;29429;51.074;13.764;2024-02-21T13:46:39;6.20;;;2.50;;
43801;SDS011;29429;51.074;13.764;2024-02-21T13:49:06;6.80;;;2.08;;
43801;SDS011;29429;51.074;13.764;2024-02-21T13:51:34;10.30;;;3.13;;
43801;SDS011;29429;51.074;13.764;2024-02-21T13:54:04;6.22;;;2.60;;
43801;SDS011;29429;51.074;13.764;2024-02-21T13:56:35;8.05;;;2.28;;
43801;SDS011;29429;51.074;13.764;2024-02-21T13:59:02;5.25;;;1.98;;
43801;SDS011;29429;51.074;13.764;2024-02-21T14:01:30;5.85;;;2.72;;
43801;SDS011;29429;51.074;13.764;2024-02-21T14:04:00;4.82;;;1.85;;
43801;SDS011;29429;51.074;13.764;2024-02-21T14:06:27;5.55;;;1.60;;
43801;SDS011;29429;51.074;13.764;2024-02-21T14:08:54;4.70;;;2.20;;
43801;SDS011;29429;51.074;13.764;2024-02-21T14:11:21;6.45;;;2.35;;
43801;SDS011;29429;51.074;13.764;2024-02-21T14:13:48;3.97;;;1.88;;
43801;SDS011;29429;51.074;13.764;2024-02-21T14:16:15;5.30;;;2.25;;
43801;SDS011;29429;51.074;13.764;2024-02-21T14:18:42;6.03;;;2.38;;
43801;SDS011;29429;51.074;13.764;2024-02-21T14:21:12;5.93;;;2.42;;
43801;SDS011;29429;51.074;13.764;2024-02-21T14:23:40;4.65;;;2.03;;
43801;SDS011;29429;51.074;13.764;2024-02-21T14:26:07;7.35;;;2.67;;
43801;SDS011;29429;51.074;13.764;2024-02-21T14:28:34;7.30;;;2.33;;
43801;SDS011;29429;51.074;13.764;2024-02-21T14:31:01;5.88;;;1.77;;
43801;SDS011;29429;51.074;13.764;2024-02-21T14:33:30;6.55;;;2.13;;
43801;SDS011;29429;51.074;13.764;2024-02-21T14:35:57;5.90;;;2.30;;